sensor_id;sensor_type;location;lat;lon;timestamp;P1;durP1;ratioP1;P2;durP2;ratioP2
28266;SDS011;15525;45.568;5.448;2023-11-22T00:00:11;14.30;;;8.50;;
28266;SDS011;15525;45.568;5.448;2023-11-22T00:02:38;17.65;;;9.25;;
28266;SDS011;15525;45.568;5.448;2023-11-22T00:05:04;16.67;;;8.50;;
28266;SDS011;15525;45.568;5.448;2023-11-22T00:07:30;16.00;;;8.38;;
28266;SDS011;15525;45.568;5.448;2023-11-22T00:09:56;15.25;;;8.13;;
28266;SDS011;15525;45.568;5.448;2023-11-22T00:12:22;17.55;;;9.13;;
28266;SDS011;15525;45.568;5.448;2023-11-22T00:14:48;14.35;;;8.00;;
28266;SDS011;15525;45.568;5.448;2023-11-22T00:17:14;15.18;;;7.55;;
28266;SDS011;15525;45.568;5.448;2023-11-22T00:19:42;14.23;;;7.93;;
28266;SDS011;15525;45.568;5.448;2023-11-22T00:22:13;14.48;;;7.93;;
28266;SDS011;15525;45.568;5.448;2023-11-22T00:24:39;14.70;;;7.93;;
28266;SDS011;15525;45.568;5.448;2023-11-22T00:27:05;17.25;;;8.38;;
28266;SDS011;15525;45.568;5.448;2023-11-22T00:29:31;14.20;;;7.93;;
28266;SDS011;15525;45.568;5.448;2023-11-22T00:31:57;20.17;;;8.30;;
28266;SDS011;15525;45.568;5.448;2023-11-22T00:34:23;17.73;;;8.30;;
28266;SDS011;15525;45.568;5.448;2023-11-22T00:36:48;17.20;;;8.93;;
28266;SDS011;15525;45.568;5.448;2023-11-22T00:39:14;15.30;;;8.30;;
28266;SDS011;15525;45.568;5.448;2023-11-22T00:41:39;19.33;;;8.85;;
28266;SDS011;15525;45.568;5.448;2023-11-22T00:44:05;15.38;;;8.07;;
28266;SDS011;15525;45.568;5.448;2023-11-22T00:46:34;18.38;;;8.35;;
28266;SDS011;15525;45.568;5.448;2023-11-22T00:48:59;15.45;;;8.60;;
28266;SDS011;15525;45.568;5.448;2023-11-22T00:51:25;16.55;;;8.73;;
28266;SDS011;15525;45.568;5.448;2023-11-22T00:53:51;16.35;;;8.63;;
28266;SDS011;15525;45.568;5.448;2023-11-22T00:56:17;18.27;;;9.43;;
28266;SDS011;15525;45.568;5.448;2023-11-22T00:58:42;16.10;;;8.45;;
28266;SDS011;15525;45.568;5.448;2023-11-22T01:01:07;20.25;;;10.73;;
28266;SDS011;15525;45.568;5.448;2023-11-22T01:03:33;17.70;;;8.38;;
28266;SDS011;15525;45.568;5.448;2023-11-22T01:06:00;18.33;;;9.10;;
28266;SDS011;15525;45.568;5.448;2023-11-22T01:08:25;17.05;;;9.00;;
28266;SDS011;15525;45.568;5.448;2023-11-22T01:10:51;18.92;;;9.50;;
28266;SDS011;15525;45.568;5.448;2023-11-22T01:13:16;18.73;;;9.10;;
28266;SDS011;15525;45.568;5.448;2023-11-22T01:15:43;19.38;;;9.27;;
28266;SDS011;15525;45.568;5.448;2023-11-22T01:18:09;18.75;;;10.25;;
28266;SDS011;15525;45.568;5.448;2023-11-22T01:20:35;21.05;;;12.73;;
28266;SDS011;15525;45.568;5.448;2023-11-22T01:23:00;17.50;;;9.23;;
28266;SDS011;15525;45.568;5.448;2023-11-22T01:25:25;19.55;;;9.98;;
28266;SDS011;15525;45.568;5.448;2023-11-22T01:27:51;18.45;;;10.00;;
28266;SDS011;15525;45.568;5.448;2023-11-22T01:30:17;14.90;;;8.40;;
28266;SDS011;15525;45.568;5.448;2023-11-22T01:32:43;19.33;;;9.90;;
28266;SDS011;15525;45.568;5.448;2023-11-22T01:35:09;15.20;;;8.65;;
28266;SDS011;15525;45.568;5.448;2023-11-22T01:37:35;14.70;;;8.23;;
28266;SDS011;15525;45.568;5.448;2023-11-22T01:40:00;15.20;;;8.32;;
28266;SDS011;15525;45.568;5.448;2023-11-22T01:42:28;15.00;;;8.18;;
28266;SDS011;15525;45.568;5.448;2023-11-22T01:44:53;14.90;;;7.90;;
28266;SDS011;15525;45.568;5.448;2023-11-22T01:47:19;15.00;;;8.68;;
28266;SDS011;15525;45.568;5.448;2023-11-22T01:49:45;13.55;;;7.25;;
28266;SDS011;15525;45.568;5.448;2023-11-22T01:52:11;19.13;;;8.57;;
28266;SDS011;15525;45.568;5.448;2023-11-22T01:54:36;16.33;;;7.75;;
28266;SDS011;15525;45.568;5.448;2023-11-22T01:57:02;16.25;;;8.60;;
28266;SDS011;15525;45.568;5.448;2023-11-22T01:59:28;15.40;;;8.80;;
28266;SDS011;15525;45.568;5.448;2023-11-22T02:01:54;15.68;;;8.75;;
28266;SDS011;15525;45.568;5.448;2023-11-22T02:04:20;17.65;;;8.48;;
28266;SDS011;15525;45.568;5.448;2023-11-22T02:06:46;16.38;;;8.60;;
28266;SDS011;15525;45.568;5.448;2023-11-22T02:09:12;15.68;;;8.20;;
28266;SDS011;15525;45.568;5.448;2023-11-22T02:11:40;14.57;;;8.07;;
28266;SDS011;15525;45.568;5.448;2023-11-22T02:14:07;16.30;;;7.90;;
28266;SDS011;15525;45.568;5.448;2023-11-22T02:16:34;16.48;;;8.07;;
28266;SDS011;15525;45.568;5.448;2023-11-22T02:19:00;15.02;;;7.97;;
28266;SDS011;15525;45.568;5.448;2023-11-22T02:21:25;18.67;;;9.00;;
28266;SDS011;15525;45.568;5.448;2023-11-22T02:23:51;16.30;;;8.88;;
28266;SDS011;15525;45.568;5.448;2023-11-22T02:26:16;16.35;;;8.75;;
28266;SDS011;15525;45.568;5.448;2023-11-22T02:28:43;19.10;;;10.30;;
28266;SDS011;15525;45.568;5.448;2023-11-22T02:31:09;19.80;;;9.63;;
28266;SDS011;15525;45.568;5.448;2023-11-22T02:33:34;21.63;;;9.70;;
28266;SDS011;15525;45.568;5.448;2023-11-22T02:36:00;19.05;;;9.68;;
28266;SDS011;15525;45.568;5.448;2023-11-22T02:38:27;19.17;;;9.43;;
28266;SDS011;15525;45.568;5.448;2023-11-22T02:40:53;19.10;;;10.20;;
28266;SDS011;15525;45.568;5.448;2023-11-22T02:43:19;20.05;;;10.52;;
28266;SDS011;15525;45.568;5.448;2023-11-22T02:45:46;18.98;;;10.50;;
28266;SDS011;15525;45.568;5.448;2023-11-22T02:48:11;21.83;;;10.60;;
28266;SDS011;15525;45.568;5.448;2023-11-22T02:50:38;22.35;;;10.57;;
28266;SDS011;15525;45.568;5.448;2023-11-22T02:53:04;21.02;;;11.27;;
28266;SDS011;15525;45.568;5.448;2023-11-22T02:55:29;21.08;;;10.73;;
28266;SDS011;15525;45.568;5.448;2023-11-22T02:57:55;23.75;;;10.77;;
28266;SDS011;15525;45.568;5.448;2023-11-22T03:00:21;19.65;;;10.73;;
28266;SDS011;15525;45.568;5.448;2023-11-22T03:02:46;21.52;;;11.20;;
28266;SDS011;15525;45.568;5.448;2023-11-22T03:05:12;22.27;;;10.95;;
28266;SDS011;15525;45.568;5.448;2023-11-22T03:07:39;22.17;;;11.32;;
28266;SDS011;15525;45.568;5.448;2023-11-22T03:10:06;24.25;;;10.75;;
28266;SDS011;15525;45.568;5.448;2023-11-22T03:12:32;24.10;;;12.13;;
28266;SDS011;15525;45.568;5.448;2023-11-22T03:14:58;23.45;;;11.55;;
28266;SDS011;15525;45.568;5.448;2023-11-22T03:17:27;26.35;;;12.13;;
28266;SDS011;15525;45.568;5.448;2023-11-22T03:19:55;24.35;;;11.95;;
28266;SDS011;15525;45.568;5.448;2023-11-22T03:22:22;24.70;;;12.27;;
28266;SDS011;15525;45.568;5.448;2023-11-22T03:24:48;21.83;;;12.05;;
28266;SDS011;15525;45.568;5.448;2023-11-22T03:27:14;22.70;;;11.52;;
28266;SDS011;15525;45.568;5.448;2023-11-22T03:29:40;21.58;;;11.10;;
28266;SDS011;15525;45.568;5.448;2023-11-22T03:32:06;21.15;;;11.75;;
28266;SDS011;15525;45.568;5.448;2023-11-22T03:34:31;22.00;;;11.18;;
28266;SDS011;15525;45.568;5.448;2023-11-22T03:36:56;24.52;;;11.57;;
28266;SDS011;15525;45.568;5.448;2023-11-22T03:39:22;22.08;;;11.63;;
28266;SDS011;15525;45.568;5.448;2023-11-22T03:41:48;23.33;;;12.30;;
28266;SDS011;15525;45.568;5.448;2023-11-22T03:44:13;24.83;;;12.30;;
28266;SDS011;15525;45.568;5.448;2023-11-22T03:46:38;22.10;;;12.20;;
28266;SDS011;15525;45.568;5.448;2023-11-22T03:49:07;23.23;;;12.10;;
28266;SDS011;15525;45.568;5.448;2023-11-22T03:51:33;23.20;;;12.15;;
28266;SDS011;15525;45.568;5.448;2023-11-22T03:54:00;22.20;;;11.80;;
28266;SDS011;15525;45.568;5.448;2023-11-22T03:56:27;23.08;;;12.20;;
28266;SDS011;15525;45.568;5.448;2023-11-22T03:58:53;23.63;;;12.43;;
28266;SDS011;15525;45.568;5.448;2023-11-22T04:01:18;22.90;;;11.95;;
28266;SDS011;15525;45.568;5.448;2023-11-22T04:03:45;22.00;;;12.07;;
28266;SDS011;15525;45.568;5.448;2023-11-22T04:06:11;26.17;;;12.25;;
28266;SDS011;15525;45.568;5.448;2023-11-22T04:08:37;27.33;;;13.13;;
28266;SDS011;15525;45.568;5.448;2023-11-22T04:11:03;23.90;;;12.60;;
28266;SDS011;15525;45.568;5.448;2023-11-22T04:13:31;28.08;;;12.32;;
28266;SDS011;15525;45.568;5.448;2023-11-22T04:15:57;24.02;;;11.95;;
28266;SDS011;15525;45.568;5.448;2023-11-22T04:18:22;22.27;;;11.75;;
28266;SDS011;15525;45.568;5.448;2023-11-22T04:20:47;24.08;;;12.48;;
28266;SDS011;15525;45.568;5.448;2023-11-22T04:23:13;25.23;;;12.45;;
28266;SDS011;15525;45.568;5.448;2023-11-22T04:25:40;23.45;;;11.68;;
28266;SDS011;15525;45.568;5.448;2023-11-22T04:28:06;34.40;;;21.17;;
28266;SDS011;15525;45.568;5.448;2023-11-22T04:30:49;24.92;;;11.82;;
28266;SDS011;15525;45.568;5.448;2023-11-22T04:33:14;22.35;;;11.90;;
28266;SDS011;15525;45.568;5.448;2023-11-22T04:35:39;23.17;;;11.77;;
28266;SDS011;15525;45.568;5.448;2023-11-22T04:38:06;26.70;;;12.68;;
28266;SDS011;15525;45.568;5.448;2023-11-22T04:40:32;25.95;;;13.23;;
28266;SDS011;15525;45.568;5.448;2023-11-22T04:42:57;27.45;;;13.27;;
28266;SDS011;15525;45.568;5.448;2023-11-22T04:45:22;30.58;;;13.55;;
28266;SDS011;15525;45.568;5.448;2023-11-22T04:47:48;26.70;;;12.70;;
28266;SDS011;15525;45.568;5.448;2023-11-22T04:50:13;26.90;;;13.60;;
28266;SDS011;15525;45.568;5.448;2023-11-22T04:52:39;26.90;;;13.98;;
28266;SDS011;15525;45.568;5.448;2023-11-22T04:55:04;25.83;;;13.77;;
28266;SDS011;15525;45.568;5.448;2023-11-22T04:57:30;26.88;;;13.75;;
28266;SDS011;15525;45.568;5.448;2023-11-22T04:59:56;29.88;;;13.27;;
28266;SDS011;15525;45.568;5.448;2023-11-22T05:02:22;28.48;;;13.25;;
28266;SDS011;15525;45.568;5.448;2023-11-22T05:04:47;29.98;;;15.10;;
28266;SDS011;15525;45.568;5.448;2023-11-22T05:07:14;29.52;;;14.00;;
28266;SDS011;15525;45.568;5.448;2023-11-22T05:09:40;26.45;;;13.15;;
28266;SDS011;15525;45.568;5.448;2023-11-22T05:12:09;31.40;;;14.48;;
28266;SDS011;15525;45.568;5.448;2023-11-22T05:14:35;31.08;;;13.45;;
28266;SDS011;15525;45.568;5.448;2023-11-22T05:17:01;31.42;;;14.55;;
28266;SDS011;15525;45.568;5.448;2023-11-22T05:19:26;26.63;;;13.38;;
28266;SDS011;15525;45.568;5.448;2023-11-22T05:21:52;30.58;;;13.60;;
28266;SDS011;15525;45.568;5.448;2023-11-22T05:24:17;29.90;;;14.32;;
28266;SDS011;15525;45.568;5.448;2023-11-22T05:26:42;30.50;;;13.48;;
28266;SDS011;15525;45.568;5.448;2023-11-22T05:29:08;31.02;;;13.10;;
28266;SDS011;15525;45.568;5.448;2023-11-22T05:31:34;26.73;;;13.82;;
28266;SDS011;15525;45.568;5.448;2023-11-22T05:34:00;27.50;;;13.75;;
28266;SDS011;15525;45.568;5.448;2023-11-22T05:36:25;30.17;;;14.18;;
28266;SDS011;15525;45.568;5.448;2023-11-22T05:38:50;30.88;;;14.55;;
28266;SDS011;15525;45.568;5.448;2023-11-22T05:41:16;29.05;;;14.32;;
28266;SDS011;15525;45.568;5.448;2023-11-22T05:43:41;27.75;;;14.13;;
28266;SDS011;15525;45.568;5.448;2023-11-22T05:46:08;34.33;;;14.50;;
28266;SDS011;15525;45.568;5.448;2023-11-22T05:48:33;28.30;;;13.40;;
28266;SDS011;15525;45.568;5.448;2023-11-22T05:50:59;31.40;;;14.77;;
28266;SDS011;15525;45.568;5.448;2023-11-22T05:53:24;30.63;;;13.98;;
28266;SDS011;15525;45.568;5.448;2023-11-22T05:55:50;29.80;;;14.35;;
28266;SDS011;15525;45.568;5.448;2023-11-22T05:58:15;29.02;;;13.70;;
28266;SDS011;15525;45.568;5.448;2023-11-22T06:00:50;31.13;;;14.27;;
28266;SDS011;15525;45.568;5.448;2023-11-22T06:03:16;29.15;;;14.25;;
28266;SDS011;15525;45.568;5.448;2023-11-22T06:05:41;29.10;;;13.10;;
28266;SDS011;15525;45.568;5.448;2023-11-22T06:08:06;27.08;;;13.23;;
28266;SDS011;15525;45.568;5.448;2023-11-22T06:10:34;25.77;;;12.60;;
28266;SDS011;15525;45.568;5.448;2023-11-22T06:12:59;27.25;;;13.10;;
28266;SDS011;15525;45.568;5.448;2023-11-22T06:15:24;23.45;;;12.43;;
28266;SDS011;15525;45.568;5.448;2023-11-22T06:17:50;28.80;;;13.32;;
28266;SDS011;15525;45.568;5.448;2023-11-22T06:20:15;27.05;;;13.52;;
28266;SDS011;15525;45.568;5.448;2023-11-22T06:22:41;26.52;;;12.73;;
28266;SDS011;15525;45.568;5.448;2023-11-22T06:25:13;24.48;;;11.95;;
28266;SDS011;15525;45.568;5.448;2023-11-22T06:27:39;26.85;;;14.25;;
28266;SDS011;15525;45.568;5.448;2023-11-22T06:30:07;22.85;;;11.95;;
28266;SDS011;15525;45.568;5.448;2023-11-22T06:32:34;25.65;;;12.15;;
28266;SDS011;15525;45.568;5.448;2023-11-22T06:34:59;22.85;;;11.68;;
28266;SDS011;15525;45.568;5.448;2023-11-22T06:37:25;20.10;;;11.27;;
28266;SDS011;15525;45.568;5.448;2023-11-22T06:39:51;23.40;;;10.88;;
28266;SDS011;15525;45.568;5.448;2023-11-22T06:42:16;23.08;;;12.10;;
28266;SDS011;15525;45.568;5.448;2023-11-22T06:44:42;19.08;;;10.05;;
28266;SDS011;15525;45.568;5.448;2023-11-22T06:47:07;18.80;;;9.27;;
28266;SDS011;15525;45.568;5.448;2023-11-22T06:49:33;18.33;;;8.95;;
28266;SDS011;15525;45.568;5.448;2023-11-22T06:51:59;18.02;;;9.30;;
28266;SDS011;15525;45.568;5.448;2023-11-22T06:54:24;19.73;;;10.35;;
28266;SDS011;15525;45.568;5.448;2023-11-22T06:56:50;17.83;;;9.60;;
28266;SDS011;15525;45.568;5.448;2023-11-22T06:59:16;19.00;;;10.45;;
28266;SDS011;15525;45.568;5.448;2023-11-22T07:01:42;19.88;;;10.15;;
28266;SDS011;15525;45.568;5.448;2023-11-22T07:04:08;20.90;;;10.93;;
28266;SDS011;15525;45.568;5.448;2023-11-22T07:06:34;20.75;;;9.90;;
28266;SDS011;15525;45.568;5.448;2023-11-22T07:09:01;24.88;;;10.93;;
28266;SDS011;15525;45.568;5.448;2023-11-22T07:11:26;21.88;;;10.15;;
28266;SDS011;15525;45.568;5.448;2023-11-22T07:13:55;21.15;;;10.55;;
28266;SDS011;15525;45.568;5.448;2023-11-22T07:16:22;18.70;;;10.38;;
28266;SDS011;15525;45.568;5.448;2023-11-22T07:18:48;21.73;;;11.10;;
28266;SDS011;15525;45.568;5.448;2023-11-22T07:21:13;25.95;;;11.18;;
28266;SDS011;15525;45.568;5.448;2023-11-22T07:23:38;23.00;;;11.75;;
28266;SDS011;15525;45.568;5.448;2023-11-22T07:26:04;21.88;;;11.10;;
28266;SDS011;15525;45.568;5.448;2023-11-22T07:28:31;23.08;;;11.63;;
28266;SDS011;15525;45.568;5.448;2023-11-22T07:30:56;24.25;;;11.80;;
28266;SDS011;15525;45.568;5.448;2023-11-22T07:33:22;23.27;;;11.63;;
28266;SDS011;15525;45.568;5.448;2023-11-22T07:35:51;25.42;;;11.65;;
28266;SDS011;15525;45.568;5.448;2023-11-22T07:38:16;26.50;;;12.32;;
28266;SDS011;15525;45.568;5.448;2023-11-22T07:40:42;27.50;;;12.80;;
28266;SDS011;15525;45.568;5.448;2023-11-22T07:43:07;26.23;;;12.65;;
28266;SDS011;15525;45.568;5.448;2023-11-22T07:45:33;24.88;;;12.63;;
28266;SDS011;15525;45.568;5.448;2023-11-22T07:47:58;25.05;;;13.27;;
28266;SDS011;15525;45.568;5.448;2023-11-22T07:50:28;26.52;;;12.60;;
28266;SDS011;15525;45.568;5.448;2023-11-22T07:52:54;25.67;;;12.57;;
28266;SDS011;15525;45.568;5.448;2023-11-22T07:55:20;26.30;;;12.55;;
28266;SDS011;15525;45.568;5.448;2023-11-22T07:57:48;29.60;;;13.43;;
28266;SDS011;15525;45.568;5.448;2023-11-22T08:00:15;29.33;;;13.40;;
28266;SDS011;15525;45.568;5.448;2023-11-22T08:02:44;29.58;;;13.68;;
28266;SDS011;15525;45.568;5.448;2023-11-22T08:05:12;34.67;;;14.38;;
28266;SDS011;15525;45.568;5.448;2023-11-22T08:07:40;25.92;;;12.95;;
28266;SDS011;15525;45.568;5.448;2023-11-22T08:10:09;26.80;;;13.48;;
28266;SDS011;15525;45.568;5.448;2023-11-22T08:12:43;27.67;;;12.85;;
28266;SDS011;15525;45.568;5.448;2023-11-22T08:15:14;29.73;;;13.20;;
28266;SDS011;15525;45.568;5.448;2023-11-22T08:17:40;27.08;;;12.82;;
28266;SDS011;15525;45.568;5.448;2023-11-22T08:20:07;23.20;;;12.27;;
28266;SDS011;15525;45.568;5.448;2023-11-22T08:22:37;22.60;;;11.43;;
28266;SDS011;15525;45.568;5.448;2023-11-22T08:25:04;24.48;;;11.52;;
28266;SDS011;15525;45.568;5.448;2023-11-22T08:27:30;22.85;;;10.52;;
28266;SDS011;15525;45.568;5.448;2023-11-22T08:29:56;23.02;;;11.55;;
28266;SDS011;15525;45.568;5.448;2023-11-22T08:32:21;23.55;;;10.38;;
28266;SDS011;15525;45.568;5.448;2023-11-22T08:34:52;22.05;;;11.02;;
28266;SDS011;15525;45.568;5.448;2023-11-22T08:37:18;20.75;;;10.50;;
28266;SDS011;15525;45.568;5.448;2023-11-22T08:39:43;22.70;;;10.55;;
28266;SDS011;15525;45.568;5.448;2023-11-22T08:42:09;22.60;;;10.88;;
28266;SDS011;15525;45.568;5.448;2023-11-22T08:44:38;19.10;;;10.25;;
28266;SDS011;15525;45.568;5.448;2023-11-22T08:47:03;20.40;;;9.98;;
28266;SDS011;15525;45.568;5.448;2023-11-22T08:49:29;17.50;;;9.75;;
28266;SDS011;15525;45.568;5.448;2023-11-22T08:51:55;21.75;;;10.10;;
28266;SDS011;15525;45.568;5.448;2023-11-22T08:54:21;16.40;;;9.55;;
28266;SDS011;15525;45.568;5.448;2023-11-22T08:56:46;19.77;;;9.02;;
28266;SDS011;15525;45.568;5.448;2023-11-22T08:59:12;21.85;;;9.70;;
28266;SDS011;15525;45.568;5.448;2023-11-22T09:01:38;17.38;;;9.57;;
28266;SDS011;15525;45.568;5.448;2023-11-22T09:04:03;15.18;;;8.60;;
28266;SDS011;15525;45.568;5.448;2023-11-22T09:06:29;17.73;;;9.05;;
28266;SDS011;15525;45.568;5.448;2023-11-22T09:08:55;20.67;;;9.70;;
28266;SDS011;15525;45.568;5.448;2023-11-22T09:11:21;18.98;;;9.40;;
28266;SDS011;15525;45.568;5.448;2023-11-22T09:13:47;16.80;;;9.50;;
28266;SDS011;15525;45.568;5.448;2023-11-22T09:16:15;15.68;;;8.77;;
28266;SDS011;15525;45.568;5.448;2023-11-22T09:18:41;16.50;;;9.32;;
28266;SDS011;15525;45.568;5.448;2023-11-22T09:21:13;17.35;;;9.07;;
28266;SDS011;15525;45.568;5.448;2023-11-22T09:27:00;18.08;;;8.88;;
28266;SDS011;15525;45.568;5.448;2023-11-22T09:29:29;15.90;;;8.82;;
28266;SDS011;15525;45.568;5.448;2023-11-22T09:31:55;14.27;;;7.70;;
28266;SDS011;15525;45.568;5.448;2023-11-22T09:34:21;13.95;;;7.57;;
28266;SDS011;15525;45.568;5.448;2023-11-22T09:36:47;15.05;;;8.10;;
28266;SDS011;15525;45.568;5.448;2023-11-22T09:39:12;13.52;;;7.10;;
28266;SDS011;15525;45.568;5.448;2023-11-22T09:41:37;11.02;;;6.63;;
28266;SDS011;15525;45.568;5.448;2023-11-22T09:44:04;12.98;;;7.20;;
28266;SDS011;15525;45.568;5.448;2023-11-22T09:46:30;15.50;;;7.35;;
28266;SDS011;15525;45.568;5.448;2023-11-22T09:48:58;12.63;;;7.60;;
28266;SDS011;15525;45.568;5.448;2023-11-22T09:51:28;15.63;;;8.00;;
28266;SDS011;15525;45.568;5.448;2023-11-22T09:53:58;13.88;;;7.95;;
28266;SDS011;15525;45.568;5.448;2023-11-22T09:56:25;11.25;;;7.43;;
28266;SDS011;15525;45.568;5.448;2023-11-22T09:58:52;12.75;;;7.90;;
28266;SDS011;15525;45.568;5.448;2023-11-22T10:01:21;12.43;;;6.65;;
28266;SDS011;15525;45.568;5.448;2023-11-22T10:03:49;11.90;;;6.80;;
28266;SDS011;15525;45.568;5.448;2023-11-22T10:06:15;10.85;;;6.55;;
28266;SDS011;15525;45.568;5.448;2023-11-22T10:08:42;9.98;;;6.47;;
28266;SDS011;15525;45.568;5.448;2023-11-22T10:11:08;10.95;;;6.43;;
28266;SDS011;15525;45.568;5.448;2023-11-22T10:13:33;11.00;;;6.57;;
28266;SDS011;15525;45.568;5.448;2023-11-22T10:16:12;11.20;;;6.13;;
28266;SDS011;15525;45.568;5.448;2023-11-22T10:18:47;10.85;;;6.85;;
28266;SDS011;15525;45.568;5.448;2023-11-22T10:21:19;11.38;;;6.53;;
28266;SDS011;15525;45.568;5.448;2023-11-22T10:23:46;10.85;;;6.55;;
28266;SDS011;15525;45.568;5.448;2023-11-22T10:26:12;8.88;;;5.70;;
28266;SDS011;15525;45.568;5.448;2023-11-22T10:28:42;10.88;;;5.53;;
28266;SDS011;15525;45.568;5.448;2023-11-22T10:31:11;10.68;;;5.88;;
28266;SDS011;15525;45.568;5.448;2023-11-22T10:33:41;10.55;;;5.35;;
28266;SDS011;15525;45.568;5.448;2023-11-22T10:36:08;8.75;;;5.03;;
28266;SDS011;15525;45.568;5.448;2023-11-22T10:38:33;8.35;;;5.47;;
28266;SDS011;15525;45.568;5.448;2023-11-22T10:41:02;9.52;;;5.18;;
28266;SDS011;15525;45.568;5.448;2023-11-22T10:43:29;7.63;;;4.95;;
28266;SDS011;15525;45.568;5.448;2023-11-22T10:45:57;7.05;;;4.60;;
28266;SDS011;15525;45.568;5.448;2023-11-22T10:48:24;7.63;;;4.63;;
28266;SDS011;15525;45.568;5.448;2023-11-22T10:50:50;8.23;;;5.15;;
28266;SDS011;15525;45.568;5.448;2023-11-22T10:53:30;7.18;;;4.88;;
28266;SDS011;15525;45.568;5.448;2023-11-22T10:56:12;8.43;;;4.95;;
28266;SDS011;15525;45.568;5.448;2023-11-22T10:58:47;7.65;;;4.90;;
28266;SDS011;15525;45.568;5.448;2023-11-22T11:01:14;9.02;;;4.63;;
28266;SDS011;15525;45.568;5.448;2023-11-22T11:04:02;9.27;;;5.07;;
28266;SDS011;15525;45.568;5.448;2023-11-22T11:06:36;6.50;;;4.32;;
28266;SDS011;15525;45.568;5.448;2023-11-22T11:09:03;6.93;;;4.40;;
28266;SDS011;15525;45.568;5.448;2023-11-22T11:11:31;6.47;;;4.40;;
28266;SDS011;15525;45.568;5.448;2023-11-22T11:13:58;7.45;;;4.63;;
28266;SDS011;15525;45.568;5.448;2023-11-22T11:16:26;6.72;;;4.40;;
28266;SDS011;15525;45.568;5.448;2023-11-22T11:18:52;7.75;;;4.10;;
28266;SDS011;15525;45.568;5.448;2023-11-22T11:21:18;6.55;;;4.20;;
28266;SDS011;15525;45.568;5.448;2023-11-22T11:23:44;7.47;;;4.10;;
28266;SDS011;15525;45.568;5.448;2023-11-22T11:26:19;7.55;;;4.18;;
28266;SDS011;15525;45.568;5.448;2023-11-22T11:28:49;7.50;;;4.38;;
28266;SDS011;15525;45.568;5.448;2023-11-22T11:31:16;7.10;;;4.07;;
28266;SDS011;15525;45.568;5.448;2023-11-22T11:36:21;6.93;;;4.00;;
28266;SDS011;15525;45.568;5.448;2023-11-22T11:38:54;6.35;;;3.80;;
28266;SDS011;15525;45.568;5.448;2023-11-22T11:41:31;5.80;;;3.80;;
28266;SDS011;15525;45.568;5.448;2023-11-22T11:43:58;4.88;;;3.20;;
28266;SDS011;15525;45.568;5.448;2023-11-22T11:46:24;4.95;;;3.38;;
28266;SDS011;15525;45.568;5.448;2023-11-22T11:48:52;4.95;;;2.90;;
28266;SDS011;15525;45.568;5.448;2023-11-22T11:51:19;4.95;;;3.08;;
28266;SDS011;15525;45.568;5.448;2023-11-22T11:53:46;3.50;;;2.70;;
28266;SDS011;15525;45.568;5.448;2023-11-22T11:56:12;4.88;;;2.67;;
28266;SDS011;15525;45.568;5.448;2023-11-22T11:58:38;4.80;;;2.70;;
28266;SDS011;15525;45.568;5.448;2023-11-22T12:01:04;5.55;;;2.83;;
28266;SDS011;15525;45.568;5.448;2023-11-22T12:03:30;3.83;;;2.50;;
28266;SDS011;15525;45.568;5.448;2023-11-22T12:05:56;3.20;;;2.33;;
28266;SDS011;15525;45.568;5.448;2023-11-22T12:08:21;3.00;;;2.30;;
28266;SDS011;15525;45.568;5.448;2023-11-22T12:10:47;2.22;;;2.00;;
28266;SDS011;15525;45.568;5.448;2023-11-22T12:13:20;3.58;;;1.90;;
28266;SDS011;15525;45.568;5.448;2023-11-22T12:15:50;2.80;;;2.10;;
28266;SDS011;15525;45.568;5.448;2023-11-22T12:18:18;3.33;;;2.13;;
28266;SDS011;15525;45.568;5.448;2023-11-22T12:20:53;2.83;;;2.13;;
28266;SDS011;15525;45.568;5.448;2023-11-22T12:23:23;3.97;;;2.28;;
28266;SDS011;15525;45.568;5.448;2023-11-22T12:25:53;4.68;;;2.95;;
28266;SDS011;15525;45.568;5.448;2023-11-22T12:28:21;4.82;;;2.63;;
28266;SDS011;15525;45.568;5.448;2023-11-22T12:30:54;3.95;;;2.47;;
28266;SDS011;15525;45.568;5.448;2023-11-22T12:33:19;4.03;;;2.80;;
28266;SDS011;15525;45.568;5.448;2023-11-22T12:35:46;5.07;;;3.00;;
28266;SDS011;15525;45.568;5.448;2023-11-22T12:38:12;6.95;;;3.10;;
28266;SDS011;15525;45.568;5.448;2023-11-22T12:40:37;2.95;;;2.58;;
28266;SDS011;15525;45.568;5.448;2023-11-22T12:43:08;4.68;;;2.63;;
28266;SDS011;15525;45.568;5.448;2023-11-22T12:45:33;3.55;;;2.50;;
28266;SDS011;15525;45.568;5.448;2023-11-22T12:48:19;3.47;;;2.55;;
28266;SDS011;15525;45.568;5.448;2023-11-22T12:50:51;3.22;;;2.45;;
28266;SDS011;15525;45.568;5.448;2023-11-22T12:53:17;3.75;;;2.50;;
28266;SDS011;15525;45.568;5.448;2023-11-22T12:55:46;3.10;;;2.50;;
28266;SDS011;15525;45.568;5.448;2023-11-22T12:58:14;4.53;;;2.67;;
28266;SDS011;15525;45.568;5.448;2023-11-22T13:00:46;4.28;;;2.70;;
28266;SDS011;15525;45.568;5.448;2023-11-22T13:03:13;4.10;;;2.70;;
28266;SDS011;15525;45.568;5.448;2023-11-22T13:05:39;5.00;;;3.10;;
28266;SDS011;15525;45.568;5.448;2023-11-22T13:08:12;3.80;;;3.10;;
28266;SDS011;15525;45.568;5.448;2023-11-22T13:10:47;4.07;;;2.90;;
28266;SDS011;15525;45.568;5.448;2023-11-22T13:13:19;4.30;;;3.05;;
28266;SDS011;15525;45.568;5.448;2023-11-22T13:15:48;4.20;;;3.03;;
28266;SDS011;15525;45.568;5.448;2023-11-22T13:18:14;4.20;;;3.30;;
28266;SDS011;15525;45.568;5.448;2023-11-22T13:20:41;4.22;;;3.40;;
28266;SDS011;15525;45.568;5.448;2023-11-22T13:23:07;6.75;;;3.65;;
28266;SDS011;15525;45.568;5.448;2023-11-22T13:25:33;5.03;;;3.63;;
28266;SDS011;15525;45.568;5.448;2023-11-22T13:27:59;6.25;;;3.67;;
28266;SDS011;15525;45.568;5.448;2023-11-22T13:30:24;6.68;;;3.90;;
28266;SDS011;15525;45.568;5.448;2023-11-22T13:32:51;4.40;;;3.53;;
28266;SDS011;15525;45.568;5.448;2023-11-22T13:35:17;7.28;;;4.18;;
28266;SDS011;15525;45.568;5.448;2023-11-22T13:37:44;7.38;;;4.20;;
28266;SDS011;15525;45.568;5.448;2023-11-22T13:40:16;7.05;;;4.35;;
28266;SDS011;15525;45.568;5.448;2023-11-22T13:42:46;6.28;;;4.25;;
28266;SDS011;15525;45.568;5.448;2023-11-22T13:45:13;7.25;;;4.63;;
28266;SDS011;15525;45.568;5.448;2023-11-22T13:47:52;6.85;;;4.35;;
28266;SDS011;15525;45.568;5.448;2023-11-22T13:50:31;6.00;;;4.20;;
28266;SDS011;15525;45.568;5.448;2023-11-22T13:52:57;6.13;;;4.35;;
28266;SDS011;15525;45.568;5.448;2023-11-22T13:55:23;6.75;;;4.30;;
28266;SDS011;15525;45.568;5.448;2023-11-22T13:57:50;7.72;;;4.57;;
28266;SDS011;15525;45.568;5.448;2023-11-22T14:00:16;6.20;;;4.28;;
28266;SDS011;15525;45.568;5.448;2023-11-22T14:02:48;6.60;;;4.63;;
28266;SDS011;15525;45.568;5.448;2023-11-22T14:05:16;6.25;;;4.57;;
28266;SDS011;15525;45.568;5.448;2023-11-22T14:07:42;6.93;;;4.53;;
28266;SDS011;15525;45.568;5.448;2023-11-22T14:10:08;6.63;;;3.88;;
28266;SDS011;15525;45.568;5.448;2023-11-22T14:12:35;6.72;;;4.78;;
28266;SDS011;15525;45.568;5.448;2023-11-22T14:15:01;7.63;;;4.45;;
28266;SDS011;15525;45.568;5.448;2023-11-22T14:17:29;6.55;;;4.50;;
28266;SDS011;15525;45.568;5.448;2023-11-22T14:19:55;6.72;;;4.55;;
28266;SDS011;15525;45.568;5.448;2023-11-22T14:22:24;7.40;;;4.45;;
28266;SDS011;15525;45.568;5.448;2023-11-22T14:24:50;5.80;;;3.95;;
28266;SDS011;15525;45.568;5.448;2023-11-22T14:27:17;7.60;;;4.40;;
28266;SDS011;15525;45.568;5.448;2023-11-22T14:29:42;6.70;;;4.47;;
28266;SDS011;15525;45.568;5.448;2023-11-22T14:32:10;7.03;;;4.32;;
28266;SDS011;15525;45.568;5.448;2023-11-22T14:34:35;6.60;;;4.25;;
28266;SDS011;15525;45.568;5.448;2023-11-22T14:37:02;6.70;;;4.75;;